Time;durP1;ratioP1;P1;durP2;ratioP2;P2;SDS_P1;SDS_P2;PMS_P1;PMS_P2;Temp;Humidity;BMP_temperature;BMP_pressure;BME280_temperature;BME280_humidity;BME280_pressure;Samples;Min_cycle;Max_cycle;Signal;HPM_P1;HPM_P2
2023/09/26 00:02:02;;;;;;;4.65;2.90;;;12.80;99.90;;;;;;5030041;28;20053;-79
2023/09/26 00:04:48;;;;;;;7.18;2.90;;;12.80;99.90;;;;;;4977991;28;20044;-79
2023/09/26 00:07:34;;;;;;;8.18;2.90;;;12.70;99.90;;;;;;5009694;28;20037;-79
2023/09/26 00:10:20;;;;;;;5.15;2.65;;;12.70;99.90;;;;;;5007482;28;20029;-79
2023/09/26 00:13:06;;;;;;;5.43;2.88;;;12.70;99.90;;;;;;4992234;28;20060;-79
2023/09/26 00:15:52;;;;;;;4.97;2.72;;;12.70;99.90;;;;;;5015845;28;20041;-79
2023/09/26 00:18:40;;;;;;;5.28;2.60;;;12.70;99.90;;;;;;5004307;28;20043;-79
2023/09/26 00:21:26;;;;;;;5.47;2.92;;;12.60;99.90;;;;;;5020840;28;20381;-79
2023/09/26 00:24:12;;;;;;;5.03;2.72;;;12.70;99.90;;;;;;4992508;28;20033;-79
2023/09/26 00:26:58;;;;;;;8.10;3.03;;;12.60;99.90;;;;;;4993119;28;20037;-79
2023/09/26 00:29:47;;;;;;;9.85;3.33;;;12.60;99.90;;;;;;4990701;28;20385;-79
2023/09/26 00:32:33;;;;;;;5.63;3.15;;;12.60;99.90;;;;;;4995034;28;20128;-79
2023/09/26 00:35:19;;;;;;;7.47;3.20;;;12.60;99.90;;;;;;5006042;28;20056;-79
2023/09/26 00:38:05;;;;;;;6.63;3.00;;;12.60;99.90;;;;;;5003551;28;20374;-79
2023/09/26 00:40:51;;;;;;;5.35;2.83;;;12.60;99.90;;;;;;5021252;28;20029;-79
2023/09/26 00:43:37;;;;;;;7.40;2.65;;;12.60;99.90;;;;;;4995068;28;20098;-79
2023/09/26 00:46:23;;;;;;;5.03;2.72;;;12.50;99.90;;;;;;4992851;28;20393;-79
2023/09/26 00:49:10;;;;;;;5.00;2.90;;;12.50;99.90;;;;;;5007092;28;20064;-79
2023/09/26 00:51:56;;;;;;;6.63;3.03;;;12.50;99.90;;;;;;4995638;28;20088;-79
2023/09/26 00:54:42;;;;;;;5.30;3.00;;;12.50;99.90;;;;;;4993416;28;20355;-79
2023/09/26 00:57:28;;;;;;;7.20;3.35;;;12.40;99.90;;;;;;5014547;28;20034;-79
2023/09/26 01:00:15;;;;;;;4.35;2.58;;;12.50;99.90;;;;;;5006631;28;20046;-79
2023/09/26 01:03:01;;;;;;;8.30;3.00;;;12.40;99.90;;;;;;4991080;28;20076;-79
2023/09/26 01:05:47;;;;;;;5.13;3.00;;;12.30;99.90;;;;;;5016227;28;20200;-79
2023/09/26 01:08:33;;;;;;;7.50;3.40;;;12.40;99.90;;;;;;5000727;28;20037;-79
2023/09/26 01:11:19;;;;;;;5.55;2.80;;;12.30;99.90;;;;;;5005404;28;20041;-79
2023/09/26 01:14:05;;;;;;;9.82;3.40;;;12.30;99.90;;;;;;5021586;28;20148;-79
2023/09/26 01:16:55;;;;;;;4.18;2.50;;;12.20;99.90;;;;;;5008429;28;20029;-79
2023/09/26 01:19:41;;;;;;;5.55;2.80;;;12.20;99.90;;;;;;5005369;28;20056;-79
2023/09/26 01:22:27;;;;;;;7.95;2.85;;;12.20;99.90;;;;;;4979524;28;20045;-79
2023/09/26 01:25:14;;;;;;;5.80;2.60;;;12.20;99.90;;;;;;4974249;28;20368;-80
2023/09/26 01:28:06;;;;;;;4.72;2.42;;;12.20;99.90;;;;;;4967113;28;20045;-80
2023/09/26 01:30:53;;;;;;;4.85;2.88;;;12.20;99.90;;;;;;4965608;28;20077;-79
2023/09/26 01:33:39;;;;;;;6.50;3.03;;;12.10;99.90;;;;;;4992891;28;20173;-79
2023/09/26 01:36:27;;;;;;;4.95;3.25;;;12.10;99.90;;;;;;4984059;28;20054;-79
2023/09/26 01:39:13;;;;;;;8.07;2.97;;;12.00;99.90;;;;;;5005965;28;20045;-79
2023/09/26 01:41:59;;;;;;;6.55;3.10;;;12.00;99.90;;;;;;4995839;28;20790;-79
2023/09/26 01:44:46;;;;;;;4.45;3.33;;;12.00;99.90;;;;;;4967863;28;20050;-79
2023/09/26 01:47:49;;;;;;;5.13;3.50;;;12.00;99.90;;;;;;4991741;28;20743;-78
2023/09/26 01:50:35;;;;;;;4.43;2.50;;;11.90;99.90;;;;;;4960294;28;20479;-79
2023/09/26 01:53:21;;;;;;;6.80;3.08;;;12.00;99.90;;;;;;4968626;28;20096;-79
2023/09/26 01:56:07;;;;;;;5.18;3.10;;;11.90;99.90;;;;;;4979108;28;20050;-79
2023/09/26 01:58:53;;;;;;;6.97;3.33;;;11.90;99.90;;;;;;4964001;28;20741;-79
2023/09/26 02:01:39;;;;;;;7.72;3.33;;;11.90;99.90;;;;;;4975160;28;20058;-79
2023/09/26 02:04:25;;;;;;;3.88;2.83;;;11.90;99.90;;;;;;4988016;28;20042;-79
2023/09/26 02:07:11;;;;;;;4.05;3.08;;;11.90;99.90;;;;;;4959337;28;20050;-79
2023/09/26 02:09:57;;;;;;;5.88;2.97;;;11.90;99.90;;;;;;4966966;28;20038;-79
2023/09/26 02:12:47;;;;;;;6.85;2.92;;;11.90;99.90;;;;;;4962214;28;20078;-79
2023/09/26 02:15:34;;;;;;;5.35;2.50;;;11.80;99.90;;;;;;4948885;28;20045;-79
2023/09/26 02:18:20;;;;;;;4.95;2.85;;;11.70;99.90;;;;;;4980169;28;20057;-79
2023/09/26 02:21:15;;;;;;;4.75;3.00;;;11.70;99.90;;;;;;4973982;28;20208;-79
2023/09/26 02:24:01;;;;;;;4.00;2.90;;;11.70;99.90;;;;;;5018412;28;20038;-79
2023/09/26 02:26:46;;;;;;;4.57;3.47;;;11.60;99.90;;;;;;4993827;28;20054;-79
2023/09/26 02:29:32;;;;;;;6.60;3.58;;;11.60;99.90;;;;;;4990808;28;20038;-79
2023/09/26 02:32:18;;;;;;;4.57;3.33;;;11.60;99.90;;;;;;4967022;28;20046;-79
2023/09/26 02:35:07;;;;;;;8.77;3.60;;;11.70;99.90;;;;;;5019820;28;20033;-79
2023/09/26 02:37:53;;;;;;;7.45;3.20;;;11.70;99.90;;;;;;4998781;28;20489;-79
2023/09/26 02:40:39;;;;;;;7.03;3.40;;;11.60;99.90;;;;;;5012140;28;20065;-79
2023/09/26 02:43:25;;;;;;;3.95;2.63;;;11.60;99.90;;;;;;4990308;28;20045;-79
2023/09/26 02:46:11;;;;;;;3.47;2.85;;;11.50;99.90;;;;;;5013076;28;20035;-79
2023/09/26 02:48:57;;;;;;;4.22;3.08;;;11.50;99.90;;;;;;5006192;28;20038;-79
2023/09/26 02:51:43;;;;;;;5.18;2.80;;;11.50;99.90;;;;;;5006343;28;20039;-79
2023/09/26 02:54:29;;;;;;;6.05;3.00;;;11.40;99.90;;;;;;4998043;28;20048;-79
2023/09/26 02:57:15;;;;;;;4.18;2.95;;;11.40;99.90;;;;;;4990329;28;20042;-79
2023/09/26 03:00:16;;;;;;;6.28;3.20;;;11.40;99.90;;;;;;4989593;28;20116;-79
2023/09/26 03:03:02;;;;;;;4.90;2.83;;;11.40;99.90;;;;;;5017077;28;20046;-79
2023/09/26 03:05:53;;;;;;;4.22;2.92;;;11.40;99.90;;;;;;5002997;28;20430;-79
2023/09/26 03:08:39;;;;;;;5.35;2.80;;;11.40;99.90;;;;;;5004876;28;20034;-79
2023/09/26 03:11:25;;;;;;;4.50;2.53;;;11.40;99.90;;;;;;4990026;28;20625;-79
2023/09/26 03:14:11;;;;;;;5.25;2.67;;;11.40;99.90;;;;;;4999420;28;20042;-79
2023/09/26 03:17:01;;;;;;;3.92;2.63;;;11.40;99.90;;;;;;4997068;28;20038;-79
2023/09/26 03:19:47;;;;;;;5.65;3.20;;;11.40;99.90;;;;;;4984493;28;20054;-79
2023/09/26 03:22:33;;;;;;;7.47;3.28;;;11.50;99.90;;;;;;4996516;28;20132;-79
2023/09/26 03:25:19;;;;;;;6.20;3.60;;;11.40;99.90;;;;;;4972455;28;20046;-79
2023/09/26 03:28:05;;;;;;;8.45;4.97;;;11.40;99.90;;;;;;5011959;28;20041;-79
2023/09/26 03:30:51;;;;;;;7.80;4.95;;;11.50;99.90;;;;;;4995052;28;20539;-79
2023/09/26 03:33:37;;;;;;;10.23;5.25;;;11.40;99.90;;;;;;4982702;28;20086;-79
2023/09/26 03:36:23;;;;;;;6.65;5.20;;;11.50;99.90;;;;;;4997148;28;20527;-79
2023/09/26 03:39:09;;;;;;;7.18;5.45;;;11.50;99.90;;;;;;5000031;28;20065;-79
2023/09/26 03:41:55;;;;;;;9.02;5.82;;;11.60;99.90;;;;;;4991344;28;20364;-79
2023/09/26 03:44:44;;;;;;;9.48;6.30;;;11.50;99.90;;;;;;4987193;28;20034;-79
2023/09/26 03:47:30;;;;;;;6.75;4.90;;;11.50;99.90;;;;;;4973983;28;20044;-79
2023/09/26 03:50:16;;;;;;;10.02;5.25;;;11.50;99.90;;;;;;5002977;28;20042;-79
2023/09/26 03:53:02;;;;;;;7.85;5.30;;;11.50;99.90;;;;;;4996408;28;20578;-79
2023/09/26 03:55:55;;;;;;;7.78;5.88;;;11.50;99.90;;;;;;4970340;28;20475;-79
2023/09/26 03:58:41;;;;;;;10.80;6.63;;;11.50;99.90;;;;;;4988328;28;20081;-79
2023/09/26 04:01:27;;;;;;;9.18;5.47;;;11.40;99.90;;;;;;5003221;28;20137;-76
2023/09/26 04:04:13;;;;;;;9.35;4.95;;;11.40;99.90;;;;;;4989507;28;20478;-76
2023/09/26 04:06:59;;;;;;;8.02;5.30;;;11.40;99.90;;;;;;5006131;28;20049;-76
2023/09/26 04:09:45;;;;;;;6.82;5.68;;;11.40;99.90;;;;;;4997734;28;20035;-76
2023/09/26 04:12:31;;;;;;;8.40;5.60;;;11.40;99.90;;;;;;5025808;28;20042;-76
2023/09/26 04:15:17;;;;;;;9.63;6.82;;;11.40;99.90;;;;;;5001255;28;20490;-76
2023/09/26 04:18:04;;;;;;;7.30;6.10;;;11.40;99.90;;;;;;5006138;28;20042;-76
2023/09/26 04:20:50;;;;;;;7.45;5.25;;;11.40;99.90;;;;;;4972053;28;20054;-76
2023/09/26 04:23:45;;;;;;;8.30;5.82;;;11.30;99.90;;;;;;4969508;28;20057;-76
2023/09/26 04:26:31;;;;;;;9.27;5.47;;;11.30;99.90;;;;;;4997142;28;20590;-76
2023/09/26 04:29:17;;;;;;;7.32;5.82;;;11.30;99.90;;;;;;4996244;28;21807;-79
2023/09/26 04:32:05;;;;;;;8.88;5.55;;;11.30;99.90;;;;;;4976871;28;20472;-79
2023/09/26 04:34:51;;;;;;;10.23;6.35;;;11.30;99.90;;;;;;4984167;28;20045;-80
2023/09/26 04:37:37;;;;;;;9.23;5.93;;;11.20;99.90;;;;;;4979170;28;20178;-80
2023/09/26 04:40:24;;;;;;;12.48;6.43;;;11.20;99.90;;;;;;4969291;28;20069;-80
2023/09/26 04:43:09;;;;;;;10.88;5.88;;;11.20;99.90;;;;;;4994484;28;20121;-79
2023/09/26 04:45:55;;;;;;;10.75;6.30;;;11.20;99.90;;;;;;4962105;28;20081;-79
2023/09/26 04:48:42;;;;;;;10.52;6.55;;;11.20;99.90;;;;;;4974533;28;20034;-80
2023/09/26 04:51:28;;;;;;;9.43;6.80;;;11.20;99.90;;;;;;4966255;28;20049;-80
2023/09/26 04:54:14;;;;;;;11.15;7.28;;;11.20;99.90;;;;;;5009263;28;20039;-79
2023/09/26 04:57:00;;;;;;;8.10;7.00;;;11.20;99.90;;;;;;4977754;28;20138;-79
2023/09/26 04:59:46;;;;;;;12.02;7.50;;;11.20;99.90;;;;;;4983031;28;20074;-80
2023/09/26 05:02:32;;;;;;;10.48;7.47;;;11.30;99.90;;;;;;4983522;28;20038;-79
2023/09/26 05:05:19;;;;;;;11.57;8.13;;;11.30;99.90;;;;;;4986557;28;20046;-79
2023/09/26 05:08:05;;;;;;;12.25;7.80;;;11.30;99.90;;;;;;4974469;28;20042;-79
2023/09/26 05:10:51;;;;;;;11.02;7.70;;;11.20;99.90;;;;;;4993286;28;20042;-78
2023/09/26 05:13:37;;;;;;;10.38;6.13;;;11.30;99.90;;;;;;4966094;28;20141;-79
2023/09/26 05:16:23;;;;;;;9.73;6.10;;;11.20;99.90;;;;;;4966614;28;20038;-78
2023/09/26 05:19:09;;;;;;;10.45;6.00;;;11.20;99.90;;;;;;5002736;28;20463;-79
2023/09/26 05:21:55;;;;;;;9.27;6.65;;;11.10;99.90;;;;;;5030303;28;20498;-78
2023/09/26 05:24:41;;;;;;;10.30;6.25;;;11.00;99.90;;;;;;4998593;28;20037;-79
2023/09/26 05:27:27;;;;;;;7.95;6.40;;;10.90;99.90;;;;;;5007882;28;20049;-79
2023/09/26 05:30:14;;;;;;;10.70;6.07;;;10.90;99.90;;;;;;5020925;28;20099;-79
2023/09/26 05:33:00;;;;;;;7.70;6.07;;;11.00;99.90;;;;;;5007291;28;20087;-79
2023/09/26 05:35:46;;;;;;;8.77;6.70;;;10.90;99.90;;;;;;5034212;28;20072;-79
2023/09/26 05:38:32;;;;;;;7.97;5.45;;;10.90;99.90;;;;;;5009545;28;20128;-79
2023/09/26 05:41:18;;;;;;;7.68;5.72;;;10.80;99.90;;;;;;5007325;28;20041;-79
2023/09/26 05:44:04;;;;;;;7.88;5.63;;;10.80;99.90;;;;;;5007643;28;20040;-79
2023/09/26 05:46:50;;;;;;;7.65;6.03;;;10.80;99.90;;;;;;5019976;28;20052;-78
2023/09/26 05:49:36;;;;;;;11.65;7.75;;;10.80;99.90;;;;;;5014419;28;20076;-78
2023/09/26 05:52:23;;;;;;;8.25;7.07;;;10.80;99.90;;;;;;5019439;28;20065;-79
2023/09/26 05:55:09;;;;;;;8.13;6.13;;;10.80;99.90;;;;;;5006041;28;20041;-79
2023/09/26 05:57:55;;;;;;;8.88;6.45;;;10.90;99.90;;;;;;5005962;28;20114;-79
2023/09/26 06:00:42;;;;;;;11.73;7.32;;;10.80;99.90;;;;;;5006203;28;20123;-79
2023/09/26 06:03:28;;;;;;;10.75;6.88;;;10.90;99.90;;;;;;4992484;28;20083;-79
2023/09/26 06:06:14;;;;;;;11.60;8.07;;;10.90;99.90;;;;;;5019971;28;20037;-79
2023/09/26 06:09:00;;;;;;;10.60;7.78;;;10.90;99.90;;;;;;4978468;28;20053;-77
2023/09/26 06:11:46;;;;;;;11.55;8.38;;;10.90;99.90;;;;;;4999545;28;20374;-77
2023/09/26 06:14:33;;;;;;;14.82;9.07;;;11.00;99.90;;;;;;4998518;28;20052;-77
2023/09/26 06:17:19;;;;;;;14.65;9.45;;;11.00;99.90;;;;;;4999631;28;20368;-77
2023/09/26 06:20:08;;;;;;;13.90;10.00;;;11.10;99.90;;;;;;4999037;28;20103;-76
2023/09/26 06:22:55;;;;;;;15.20;10.32;;;11.10;99.90;;;;;;4999102;28;20490;-76
2023/09/26 06:25:41;;;;;;;16.13;10.50;;;11.20;99.90;;;;;;5005790;28;20088;-76
2023/09/26 06:28:27;;;;;;;13.43;9.82;;;11.20;99.90;;;;;;5007189;28;20552;-78
2023/09/26 06:31:14;;;;;;;12.70;9.40;;;11.30;99.90;;;;;;4991274;28;20052;-79
2023/09/26 06:34:01;;;;;;;14.38;9.48;;;11.40;99.90;;;;;;5018284;28;20108;-79
2023/09/26 06:36:51;;;;;;;15.13;10.25;;;11.50;99.90;;;;;;4992507;28;20068;-79
2023/09/26 06:39:37;;;;;;;13.80;10.15;;;11.40;99.90;;;;;;5031025;28;20737;-79
2023/09/26 06:42:23;;;;;;;14.40;10.73;;;11.50;99.90;;;;;;5018824;28;20044;-79
2023/09/26 06:45:10;;;;;;;14.18;10.00;;;11.60;99.90;;;;;;4987592;28;20469;-78
2023/09/26 06:47:56;;;;;;;14.70;10.68;;;11.60;99.90;;;;;;5001603;28;20041;-78
2023/09/26 06:50:43;;;;;;;19.58;12.43;;;11.60;99.90;;;;;;4999420;28;20041;-78
2023/09/26 06:53:29;;;;;;;16.05;11.18;;;11.70;99.90;;;;;;4997894;28;20052;-78
2023/09/26 06:56:15;;;;;;;16.80;11.02;;;11.80;99.90;;;;;;5005034;28;20124;-78
2023/09/26 06:59:01;;;;;;;16.30;11.60;;;11.80;99.90;;;;;;5011486;28;20142;-78
2023/09/26 07:01:47;;;;;;;14.57;11.23;;;11.80;99.90;;;;;;5005682;28;20438;-78
2023/09/26 07:04:33;;;;;;;17.95;11.82;;;11.90;99.90;;;;;;5005114;28;20103;-79
2023/09/26 07:07:19;;;;;;;20.55;11.75;;;11.90;99.90;;;;;;4987459;28;20382;-79
2023/09/26 07:10:07;;;;;;;15.25;12.00;;;12.00;99.90;;;;;;5006803;28;20037;-79
2023/09/26 07:12:54;;;;;;;15.65;12.30;;;12.10;99.90;;;;;;4993371;28;20056;-79
2023/09/26 07:15:40;;;;;;;20.00;13.27;;;12.10;99.90;;;;;;5025858;28;20374;-78
2023/09/26 07:18:26;;;;;;;15.85;12.10;;;12.20;99.90;;;;;;5017924;28;20033;-78
2023/09/26 07:21:12;;;;;;;20.77;12.40;;;12.30;99.90;;;;;;4980652;28;20058;-78
2023/09/26 07:23:59;;;;;;;15.18;11.60;;;12.40;99.90;;;;;;4998355;28;20120;-79
2023/09/26 07:26:45;;;;;;;15.75;11.80;;;12.50;99.90;;;;;;4968675;28;20129;-78
2023/09/26 07:29:31;;;;;;;18.20;12.93;;;12.50;99.90;;;;;;4981530;28;20031;-78
2023/09/26 07:32:17;;;;;;;17.42;11.40;;;12.60;99.90;;;;;;4978419;28;20042;-79
2023/09/26 07:35:04;;;;;;;17.60;12.10;;;12.70;99.90;;;;;;4967900;28;20046;-79
2023/09/26 07:37:50;;;;;;;16.42;12.00;;;12.80;99.90;;;;;;4987118;28;20049;-78
2023/09/26 07:40:36;;;;;;;13.75;11.18;;;12.90;99.90;;;;;;4997054;28;20042;-79
2023/09/26 07:43:23;;;;;;;16.58;12.05;;;13.00;99.90;;;;;;4952248;28;20034;-79
2023/09/26 07:46:09;;;;;;;15.98;11.27;;;13.10;99.90;;;;;;4974543;28;20035;-79
2023/09/26 07:48:55;;;;;;;14.93;10.00;;;13.20;99.90;;;;;;4990148;28;20035;-79
2023/09/26 07:51:41;;;;;;;14.10;10.63;;;13.30;99.90;;;;;;4986200;28;20046;-79
2023/09/26 07:54:28;;;;;;;14.77;11.05;;;13.40;99.90;;;;;;4994120;28;20065;-79
2023/09/26 07:57:14;;;;;;;12.90;10.10;;;13.40;99.90;;;;;;4982391;28;20515;-79
2023/09/26 08:00:00;;;;;;;14.18;11.15;;;13.60;99.90;;;;;;4971086;28;20137;-79
2023/09/26 08:02:46;;;;;;;16.45;10.88;;;13.60;99.90;;;;;;4997428;28;20474;-79
2023/09/26 08:05:32;;;;;;;11.77;10.30;;;13.70;99.90;;;;;;4983694;28;20038;-79
2023/09/26 08:08:18;;;;;;;14.80;11.40;;;13.80;99.90;;;;;;4966386;28;20460;-79
2023/09/26 08:11:09;;;;;;;12.82;10.98;;;14.00;99.90;;;;;;4977011;28;20125;-79
2023/09/26 08:13:56;;;;;;;17.85;12.55;;;14.10;99.90;;;;;;4981932;28;20034;-79
2023/09/26 08:16:43;;;;;;;16.05;12.25;;;14.20;99.90;;;;;;4962303;28;20357;-79
2023/09/26 08:19:29;;;;;;;16.60;12.10;;;14.40;99.90;;;;;;4970913;28;20116;-79
2023/09/26 08:22:15;;;;;;;17.02;13.70;;;14.50;99.90;;;;;;5000478;28;20049;-78
2023/09/26 08:25:02;;;;;;;18.23;12.82;;;14.60;99.90;;;;;;4994772;28;20037;-79
2023/09/26 08:27:48;;;;;;;17.50;11.73;;;14.70;99.90;;;;;;5001890;28;20042;-76
2023/09/26 08:30:34;;;;;;;16.42;11.88;;;14.90;99.90;;;;;;4984758;28;20034;-76
2023/09/26 08:33:20;;;;;;;17.38;11.40;;;15.00;99.90;;;;;;5017008;28;20038;-75
2023/09/26 08:36:14;;;;;;;18.75;11.93;;;15.20;99.90;;;;;;5002505;28;20100;-78
2023/09/26 08:39:00;;;;;;;15.70;11.10;;;15.30;99.90;;;;;;5008614;28;20430;-79
2023/09/26 08:41:46;;;;;;;17.17;11.15;;;15.40;99.90;;;;;;4993980;28;20041;-78
2023/09/26 08:44:32;;;;;;;14.68;10.43;;;15.50;99.90;;;;;;5000752;28;20542;-79
2023/09/26 08:47:20;;;;;;;18.08;10.18;;;15.60;99.90;;;;;;4993434;28;20042;-79
2023/09/26 08:50:07;;;;;;;20.40;9.77;;;15.90;99.90;;;;;;4981868;28;20467;-77
2023/09/26 08:52:53;;;;;;;13.82;9.00;;;15.90;99.90;;;;;;4977732;28;20042;-76
2023/09/26 08:55:39;;;;;;;15.57;8.02;;;16.10;99.90;;;;;;5000880;28;20077;-75
2023/09/26 08:58:26;;;;;;;11.50;7.80;;;16.30;99.90;;;;;;4989926;28;20052;-75
2023/09/26 09:01:11;;;;;;;11.98;6.70;;;16.40;99.90;;;;;;4981734;28;20046;-75
2023/09/26 09:03:58;;;;;;;9.88;8.27;;;16.60;99.90;;;;;;4987944;28;20038;-76
2023/09/26 09:06:44;;;;;;;14.35;6.97;;;16.70;99.90;;;;;;4984952;28;20043;-77
2023/09/26 09:09:31;;;;;;;8.45;6.57;;;16.80;99.90;;;;;;5002315;28;20045;-76
2023/09/26 09:12:24;;;;;;;8.27;6.43;;;16.90;99.90;;;;;;4983792;28;20050;-75
2023/09/26 09:15:17;;;;;;;13.20;6.00;;;17.10;99.90;;;;;;4980197;28;20097;-75
2023/09/26 09:18:03;;;;;;;8.93;4.68;;;17.30;99.90;;;;;;5005855;28;20056;-76
2023/09/26 09:20:49;;;;;;;7.55;4.43;;;17.40;99.90;;;;;;4981171;28;20057;-76
2023/09/26 09:23:48;;;;;;;5.95;4.00;;;17.60;99.90;;;;;;4967466;28;20050;-76
2023/09/26 09:26:35;;;;;;;8.95;5.60;;;17.60;99.90;;;;;;4976936;28;20423;-75
2023/09/26 09:29:23;;;;;;;6.30;3.33;;;17.80;99.90;;;;;;4973458;28;20053;-77
2023/09/26 09:32:08;;;;;;;5.73;3.23;;;17.90;99.90;;;;;;4979896;28;20149;-77
2023/09/26 09:34:54;;;;;;;7.38;3.40;;;18.20;99.90;;;;;;4961440;28;20193;-77
2023/09/26 09:37:45;;;;;;;5.72;3.33;;;18.40;99.90;;;;;;4964967;28;20042;-77
2023/09/26 09:40:31;;;;;;;7.78;3.03;;;18.50;99.90;;;;;;4981956;28;20466;-77
2023/09/26 09:43:17;;;;;;;4.82;3.10;;;18.70;99.90;;;;;;4971976;28;20137;-77
2023/09/26 09:46:06;;;;;;;6.03;2.90;;;18.90;99.90;;;;;;4990889;28;20048;-77
2023/09/26 09:48:52;;;;;;;8.73;3.70;;;19.00;99.90;;;;;;4963738;28;20039;-77
2023/09/26 09:51:43;;;;;;;4.75;2.92;;;19.10;99.90;;;;;;4975856;28;20046;-77
2023/09/26 09:54:29;;;;;;;4.97;2.88;;;19.30;99.90;;;;;;4965087;28;20125;-77
2023/09/26 09:57:17;;;;;;;6.88;3.08;;;19.50;99.90;;;;;;4964959;28;20046;-76
2023/09/26 10:00:05;;;;;;;5.93;3.05;;;19.60;99.90;;;;;;4970504;28;20074;-76
2023/09/26 10:02:56;;;;;;;8.75;3.10;;;19.70;99.90;;;;;;4957541;28;20456;-76
2023/09/26 10:05:43;;;;;;;5.88;2.88;;;19.80;99.90;;;;;;4975676;28;20030;-76
2023/09/26 10:08:28;;;;;;;4.68;3.10;;;19.90;99.90;;;;;;4960186;28;20367;-76
2023/09/26 10:11:15;;;;;;;4.13;2.80;;;19.90;99.90;;;;;;4962996;28;20049;-76
2023/09/26 10:14:05;;;;;;;5.25;3.10;;;19.90;99.90;;;;;;4966695;28;20454;-76
2023/09/26 10:16:53;;;;;;;4.47;2.67;;;20.00;99.90;;;;;;4980909;28;20104;-76
2023/09/26 10:19:39;;;;;;;5.55;3.08;;;20.20;99.90;;;;;;4973492;28;20058;-76
2023/09/26 10:22:32;;;;;;;6.03;2.60;;;20.30;99.90;;;;;;4990218;28;20046;-76
2023/09/26 10:25:23;;;;;;;4.03;2.70;;;20.30;99.90;;;;;;4976551;28;20039;-76
2023/09/26 10:28:09;;;;;;;5.75;2.55;;;20.50;99.90;;;;;;4951248;28;20034;-76
2023/09/26 10:30:55;;;;;;;7.22;2.40;;;20.80;99.90;;;;;;4957256;28;20490;-77
2023/09/26 10:33:52;;;;;;;5.93;2.50;;;20.90;99.30;;;;;;4966262;28;20818;-76
2023/09/26 10:36:38;;;;;;;4.25;2.35;;;21.00;99.50;;;;;;4966370;28;20046;-76
2023/09/26 10:39:38;;;;;;;6.32;2.35;;;21.00;98.10;;;;;;4975941;28;20074;-76
2023/09/26 10:42:24;;;;;;;4.03;2.40;;;21.00;98.80;;;;;;4980104;28;20566;-76
2023/09/26 10:45:11;;;;;;;3.22;2.30;;;21.20;99.10;;;;;;5006974;28;20046;-77
2023/09/26 10:47:56;;;;;;;4.70;2.55;;;21.50;98.40;;;;;;4992953;28;20132;-74
2023/09/26 10:50:43;;;;;;;4.95;2.10;;;21.80;97.40;;;;;;4993978;28;20096;-77
2023/09/26 10:53:29;;;;;;;4.45;2.10;;;22.10;97.20;;;;;;4973534;28;20142;-77
2023/09/26 10:56:15;;;;;;;5.82;2.25;;;22.40;96.00;;;;;;4959837;28;20116;-78
2023/09/26 10:59:02;;;;;;;3.88;1.95;;;22.60;95.80;;;;;;4975625;28;20133;-78
2023/09/26 11:01:53;;;;;;;6.43;2.10;;;22.70;95.40;;;;;;4996518;28;20118;-78
2023/09/26 11:04:40;;;;;;;5.63;1.98;;;22.90;95.40;;;;;;4967753;28;20053;-78
2023/09/26 11:07:26;;;;;;;6.88;1.98;;;23.00;95.30;;;;;;4967730;28;20046;-78
2023/09/26 11:10:13;;;;;;;4.03;1.88;;;23.00;95.70;;;;;;4969560;28;20112;-77
2023/09/26 11:13:02;;;;;;;3.00;2.20;;;23.00;95.70;;;;;;4983499;28;20034;-77
2023/09/26 11:15:54;;;;;;;4.30;1.70;;;23.10;94.70;;;;;;4969088;28;20121;-77
2023/09/26 11:18:39;;;;;;;3.90;1.90;;;23.30;94.80;;;;;;4983314;28;20046;-77
2023/09/26 11:21:26;;;;;;;5.38;2.10;;;23.20;94.80;;;;;;5019232;28;20037;-77
2023/09/26 11:24:27;;;;;;;5.35;1.75;;;23.40;94.30;;;;;;5007652;28;20037;-77
2023/09/26 11:27:14;;;;;;;2.47;1.52;;;23.30;93.30;;;;;;4999671;28;20045;-77
2023/09/26 11:30:01;;;;;;;6.33;1.80;;;23.40;94.20;;;;;;4995592;28;20378;-77
2023/09/26 11:32:48;;;;;;;3.53;1.70;;;23.50;94.10;;;;;;4984169;28;20268;-77
2023/09/26 11:35:35;;;;;;;4.60;1.70;;;23.60;94.50;;;;;;5010779;28;20537;-77
2023/09/26 11:38:20;;;;;;;6.38;1.80;;;23.90;94.20;;;;;;5003990;28;20104;-77
2023/09/26 11:41:06;;;;;;;3.60;1.60;;;24.00;92.80;;;;;;5035619;28;20041;-77
2023/09/26 11:43:55;;;;;;;2.35;1.63;;;24.00;93.40;;;;;;5013747;28;20153;-77
2023/09/26 11:46:46;;;;;;;4.38;1.50;;;24.10;92.70;;;;;;5009563;28;20033;-77
2023/09/26 11:49:32;;;;;;;3.28;1.38;;;24.20;92.90;;;;;;5025303;28;20034;-77
2023/09/26 11:52:18;;;;;;;3.47;1.60;;;24.30;93.20;;;;;;5015879;28;20073;-77
2023/09/26 11:55:06;;;;;;;3.05;1.50;;;24.50;93.10;;;;;;5015613;28;20553;-77
2023/09/26 11:57:52;;;;;;;1.70;1.20;;;24.30;91.80;;;;;;5014228;28;20037;-77
2023/09/26 12:00:37;;;;;;;3.10;1.50;;;24.40;91.50;;;;;;5008477;28;20049;-77
2023/09/26 12:03:25;;;;;;;3.88;1.40;;;24.50;91.80;;;;;;5035630;28;20120;-77
2023/09/26 12:06:11;;;;;;;2.42;1.50;;;24.50;90.90;;;;;;5015295;28;20060;-77
2023/09/26 12:08:57;;;;;;;4.85;1.42;;;24.50;91.50;;;;;;5008260;28;20073;-77
2023/09/26 12:11:44;;;;;;;2.10;1.50;;;24.60;91.90;;;;;;5007352;28;20076;-77
2023/09/26 12:14:30;;;;;;;2.45;1.60;;;24.70;91.60;;;;;;4993889;28;20049;-77
2023/09/26 12:17:16;;;;;;;9.38;1.70;;;24.90;91.20;;;;;;4988353;28;20387;-77
2023/09/26 12:20:09;;;;;;;2.15;1.42;;;25.10;91.80;;;;;;5006778;28;20056;-77
2023/09/26 12:22:55;;;;;;;2.40;1.52;;;25.30;91.50;;;;;;4995808;28;20049;-76
2023/09/26 12:25:41;;;;;;;3.08;1.40;;;25.60;91.80;;;;;;4992919;28;20076;-77
2023/09/26 12:28:27;;;;;;;7.90;1.60;;;25.80;90.90;;;;;;5006796;28;20076;-77
2023/09/26 12:31:13;;;;;;;3.67;1.63;;;25.90;89.70;;;;;;5008050;28;20069;-78
2023/09/26 12:34:02;;;;;;;4.20;1.63;;;25.80;90.10;;;;;;5023466;28;20560;-77
2023/09/26 12:36:48;;;;;;;4.88;1.48;;;26.20;89.50;;;;;;4993075;28;20077;-77
2023/09/26 12:39:33;;;;;;;6.70;1.58;;;26.50;88.70;;;;;;4989932;28;20033;-77
2023/09/26 12:42:19;;;;;;;3.60;1.40;;;26.70;89.70;;;;;;5006046;28;20069;-78
2023/09/26 12:45:06;;;;;;;2.47;1.30;;;27.00;88.80;;;;;;4998036;28;20065;-77
2023/09/26 12:47:54;;;;;;;3.03;1.75;;;27.30;87.90;;;;;;5008468;28;20463;-77
2023/09/26 12:50:40;;;;;;;;;;;27.40;87.00;;;;;;5018388;28;20045;-78
2023/09/26 12:53:26;;;;;;;3.65;1.40;;;27.60;87.60;;;;;;5016416;28;20007;-78
2023/09/26 12:56:12;;;;;;;3.00;1.30;;;27.80;86.10;;;;;;5011968;28;20045;-77
2023/09/26 12:58:59;;;;;;;2.13;1.65;;;27.90;85.10;;;;;;5005801;28;20124;-77
2023/09/26 13:01:45;;;;;;;3.03;1.50;;;27.90;85.50;;;;;;4988058;28;20049;-77
2023/09/26 13:04:31;;;;;;;3.20;1.25;;;27.90;83.90;;;;;;4993897;28;20334;-77
2023/09/26 13:07:18;;;;;;;2.10;1.30;;;28.00;85.10;;;;;;4988744;28;20279;-77
2023/09/26 13:10:05;;;;;;;1.73;1.30;;;28.10;84.40;;;;;;5030067;28;20083;-78
2023/09/26 13:12:51;;;;;;;4.55;1.80;;;28.20;83.90;;;;;;5030993;28;20034;-78
2023/09/26 13:15:37;;;;;;;1.77;1.38;;;27.90;81.30;;;;;;5013386;28;20080;-77
2023/09/26 13:18:23;;;;;;;3.20;1.50;;;28.20;84.20;;;;;;5018614;28;20100;-77
2023/09/26 13:21:10;;;;;;;3.13;1.50;;;27.90;80.20;;;;;;5028226;28;20121;-77
2023/09/26 13:23:56;;;;;;;2.35;1.23;;;27.80;81.20;;;;;;5024251;28;20069;-77
2023/09/26 13:26:42;;;;;;;5.88;1.40;;;28.20;83.30;;;;;;5024146;28;20033;-77
2023/09/26 13:29:28;;;;;;;2.08;1.38;;;28.40;82.50;;;;;;5017815;28;20071;-78
2023/09/26 13:32:14;;;;;;;2.10;1.30;;;28.80;82.40;;;;;;5032872;28;20038;-77
2023/09/26 13:35:03;;;;;;;2.63;1.33;;;29.00;81.00;;;;;;5005566;28;20072;-78
2023/09/26 13:37:49;;;;;;;3.90;1.60;;;28.70;79.50;;;;;;5013346;28;20033;-77
2023/09/26 13:40:35;;;;;;;2.78;1.30;;;29.00;80.70;;;;;;5017985;28;20038;-78
2023/09/26 13:43:22;;;;;;;1.98;1.25;;;29.00;79.80;;;;;;5015076;28;20053;-78
2023/09/26 13:46:07;;;;;;;3.22;1.30;;;29.00;79.80;;;;;;5037576;28;20105;-77
2023/09/26 13:48:54;;;;;;;4.05;1.20;;;28.60;80.10;;;;;;5028461;28;20042;-78
2023/09/26 13:51:40;;;;;;;2.55;1.50;;;28.10;81.10;;;;;;4998775;28;20042;-78
2023/09/26 13:54:26;;;;;;;2.30;1.35;;;27.70;81.80;;;;;;5011709;28;20026;-78
2023/09/26 13:57:13;;;;;;;3.88;1.48;;;27.40;82.20;;;;;;4995258;28;20042;-77
2023/09/26 14:00:00;;;;;;;3.22;1.52;;;27.10;82.90;;;;;;4999734;28;20034;-78
2023/09/26 14:02:46;;;;;;;3.28;1.30;;;26.90;83.70;;;;;;5013191;28;20033;-77
2023/09/26 14:05:32;;;;;;;2.72;1.50;;;26.80;84.00;;;;;;5009796;28;20064;-78
2023/09/26 14:08:18;;;;;;;2.97;1.50;;;26.60;84.20;;;;;;4995266;28;20546;-77
2023/09/26 14:11:05;;;;;;;2.28;1.20;;;26.50;84.40;;;;;;5012996;28;20129;-77
2023/09/26 14:13:51;;;;;;;2.55;1.48;;;26.60;84.90;;;;;;5023917;28;20453;-77
2023/09/26 14:16:38;;;;;;;4.70;1.48;;;26.60;83.50;;;;;;4976729;28;20038;-77
2023/09/26 14:19:24;;;;;;;3.03;1.35;;;26.40;84.20;;;;;;5011934;28;20128;-77
2023/09/26 14:22:09;;;;;;;4.40;1.50;;;26.20;84.90;;;;;;5035601;28;20124;-77
2023/09/26 14:24:55;;;;;;;1.85;1.40;;;26.10;85.50;;;;;;4986755;28;20165;-77